createdAt,value
2023-03-02T00:01:37.201Z,93.72
2023-03-02T00:04:06.638Z,93.76
2023-03-02T00:06:36.242Z,94.05
2023-03-02T00:09:06.022Z,94.15
2023-03-02T00:11:35.148Z,94.42
2023-03-02T00:14:01.774Z,94.53
2023-03-02T00:16:28.490Z,94.72
2023-03-02T00:18:55.106Z,95.02
2023-03-02T00:21:24.052Z,94.78
2023-03-02T00:23:51.978Z,94.98
2023-03-02T00:26:19.222Z,95.01
2023-03-02T00:28:46.485Z,95.34
2023-03-02T00:31:13.221Z,95.24
2023-03-02T00:33:39.955Z,95.25
2023-03-02T00:36:15.367Z,95.14
2023-03-02T00:38:41.981Z,95.20
2023-03-02T00:41:08.582Z,95.43
2023-03-02T00:43:35.129Z,95.42
2023-03-02T00:46:11.615Z,95.48
2023-03-02T00:48:38.430Z,95.60
2023-03-02T00:51:05.916Z,95.67
2023-03-02T00:53:33.606Z,95.84
2023-03-02T00:56:01.152Z,95.87
2023-03-02T00:58:28.532Z,95.90
2023-03-02T01:00:55.475Z,96.09
2023-03-02T01:03:22.146Z,96.29
2023-03-02T01:05:49.627Z,96.02
2023-03-02T01:08:16.298Z,96.02
2023-03-02T01:10:42.968Z,95.98
2023-03-02T01:13:09.607Z,96.03
2023-03-02T01:15:36.248Z,96.21
2023-03-02T01:18:03.216Z,96.34
2023-03-02T01:20:29.865Z,96.50
2023-03-02T01:22:56.734Z,96.45
2023-03-02T01:25:23.726Z,96.60
2023-03-02T01:27:50.357Z,96.67
2023-03-02T01:30:17.142Z,96.54
2023-03-02T01:32:43.794Z,96.61
2023-03-02T01:35:10.783Z,96.71
2023-03-02T01:37:37.896Z,96.60
2023-03-02T01:43:45.725Z,96.78
2023-03-02T01:46:12.306Z,96.70
2023-03-02T01:48:53.182Z,96.67
2023-03-02T01:51:25.332Z,96.82
2023-03-02T01:53:56.233Z,96.92
2023-03-02T01:56:29.154Z,97.02
2023-03-02T01:59:02.003Z,96.98
2023-03-02T02:01:34.475Z,97.00
2023-03-02T02:04:01.722Z,97.11
2023-03-02T02:06:37.708Z,97.29
2023-03-02T02:09:08.352Z,97.28
2023-03-02T02:11:35.163Z,97.30
2023-03-02T02:14:03.359Z,97.18
2023-03-02T02:16:33.426Z,97.20
2023-03-02T02:19:01.715Z,97.27
2023-03-02T02:21:28.814Z,97.38
2023-03-02T02:24:20.929Z,97.52
2023-03-02T02:26:53.092Z,97.68
2023-03-02T02:29:29.262Z,97.64
2023-03-02T02:32:17.399Z,97.63
2023-03-02T02:34:58.821Z,97.62
2023-03-02T02:37:30.672Z,97.78
2023-03-02T02:39:57.932Z,97.89
2023-03-02T02:42:29.688Z,97.96
2023-03-02T02:45:02.427Z,97.72
2023-03-02T02:47:29.391Z,97.81
2023-03-02T02:49:57.180Z,97.79
2023-03-02T02:52:26.923Z,97.80
2023-03-02T02:54:56.190Z,97.83
2023-03-02T02:57:26.629Z,98.01
2023-03-02T02:59:59.381Z,98.02
2023-03-02T03:02:30.834Z,98.14
2023-03-02T03:05:03.288Z,98.08
2023-03-02T03:07:32.094Z,98.06
2023-03-02T03:10:17.589Z,98.28
2023-03-02T03:12:44.612Z,98.16
2023-03-02T03:15:11.841Z,98.13
2023-03-02T03:17:38.473Z,98.12
2023-03-02T03:20:06.604Z,98.09
2023-03-02T03:22:36.295Z,98.34
2023-03-02T03:25:03.050Z,98.24
2023-03-02T03:27:29.669Z,98.42
2023-03-02T03:29:57.153Z,98.35
2023-03-02T03:32:24.012Z,98.37
2023-03-02T03:34:50.947Z,98.37
2023-03-02T03:37:19.761Z,98.39
2023-03-02T03:39:46.673Z,98.34
2023-03-02T03:42:13.582Z,98.39
2023-03-02T03:44:40.558Z,99.01
2023-03-02T03:47:07.201Z,98.68
2023-03-02T03:49:34.065Z,98.61
2023-03-02T03:52:00.694Z,98.61
2023-03-02T03:54:27.284Z,98.54
2023-03-02T03:56:53.845Z,98.58
2023-03-02T03:59:23.054Z,98.50
2023-03-02T04:01:53.563Z,98.51
2023-03-02T04:04:30.469Z,98.63
2023-03-02T04:06:57.491Z,98.62
2023-03-02T04:09:24.959Z,98.53
2023-03-02T04:11:53.816Z,98.46
2023-03-02T04:14:22.140Z,98.46
2023-03-02T04:16:49.443Z,98.46
2023-03-02T04:19:17.544Z,98.42
2023-03-02T04:21:47.727Z,98.39
2023-03-02T04:24:15.461Z,98.48
2023-03-02T04:26:43.363Z,98.70
2023-03-02T04:29:10.587Z,98.55
2023-03-02T04:31:38.197Z,98.58
2023-03-02T04:34:09.606Z,98.88
2023-03-02T04:36:39.077Z,99.09
2023-03-02T04:39:07.691Z,99.39
2023-03-02T04:41:34.998Z,99.47
2023-03-02T04:44:01.779Z,99.15
2023-03-02T04:46:30.120Z,99.33
2023-03-02T04:48:56.808Z,99.16
2023-03-02T04:51:30.393Z,99.06
2023-03-02T04:54:01.050Z,98.93
2023-03-02T04:56:28.102Z,98.82
2023-03-02T04:58:55.544Z,98.67
2023-03-02T05:01:22.144Z,98.71
2023-03-02T05:03:48.902Z,98.77
2023-03-02T05:06:15.999Z,98.66
2023-03-02T05:08:43.512Z,98.52
2023-03-02T05:11:22.402Z,98.36
2023-03-02T05:13:55.697Z,98.50
2023-03-02T05:16:22.919Z,98.72
2023-03-02T05:18:49.709Z,98.66
2023-03-02T05:21:17.025Z,98.68
2023-03-02T05:23:44.057Z,98.73
2023-03-02T05:26:11.246Z,98.82
2023-03-02T05:28:38.697Z,98.87
2023-03-02T05:31:05.252Z,98.69
2023-03-02T05:33:32.466Z,97.95
2023-03-02T05:36:00.214Z,97.54
2023-03-02T05:38:27.587Z,97.54
2023-03-02T05:40:54.255Z,97.69
2023-03-02T05:43:21.815Z,97.82
2023-03-02T05:45:48.383Z,97.96
2023-03-02T05:48:16.387Z,98.14
2023-03-02T05:50:43.115Z,98.30
2023-03-02T05:53:09.704Z,98.30
2023-03-02T05:55:37.165Z,98.16
2023-03-02T05:58:10.573Z,97.75
2023-03-02T06:00:37.177Z,97.16
2023-03-02T06:03:03.988Z,96.87
2023-03-02T06:05:30.547Z,96.90
2023-03-02T06:07:57.246Z,97.37
2023-03-02T06:10:24.587Z,97.06
2023-03-02T06:12:51.729Z,97.20
2023-03-02T06:15:19.219Z,97.10
2023-03-02T06:17:46.152Z,97.26
2023-03-02T06:20:14.067Z,96.99
2023-03-02T06:22:42.562Z,96.92
2023-03-02T06:25:14.173Z,96.90
2023-03-02T06:27:40.990Z,96.44
2023-03-02T06:30:11.031Z,96.40
2023-03-02T06:32:37.650Z,96.07
2023-03-02T06:35:06.318Z,95.84
2023-03-02T06:37:33.170Z,96.28
2023-03-02T06:40:00.153Z,96.21
2023-03-02T06:42:28.071Z,96.10
2023-03-02T06:44:55.122Z,96.30
2023-03-02T06:47:22.892Z,96.41
2023-03-02T06:49:49.846Z,96.18
2023-03-02T06:52:17.233Z,95.77
2023-03-02T06:54:43.812Z,95.96
2023-03-02T06:57:10.561Z,96.12
2023-03-02T06:59:37.283Z,95.99
2023-03-02T07:02:03.873Z,96.16
2023-03-02T07:04:30.485Z,95.91
2023-03-02T07:06:57.193Z,95.75
2023-03-02T07:09:24.162Z,95.52
2023-03-02T07:11:50.858Z,94.94
2023-03-02T07:14:17.478Z,95.02
2023-03-02T07:16:44.095Z,94.65
2023-03-02T07:19:13.985Z,94.67
2023-03-02T07:21:40.954Z,94.51
2023-03-02T07:24:08.033Z,94.48
2023-03-02T07:26:34.699Z,94.13
2023-03-02T07:29:01.756Z,93.68
2023-03-02T07:31:29.195Z,93.75
2023-03-02T07:33:55.834Z,93.65
2023-03-02T07:36:22.456Z,93.61
2023-03-02T07:38:49.076Z,93.39
2023-03-02T07:41:16.848Z,93.33
2023-03-02T07:43:44.015Z,93.24
2023-03-02T07:46:10.723Z,92.75
2023-03-02T07:48:37.378Z,92.43
2023-03-02T07:51:05.780Z,92.77
2023-03-02T07:53:32.430Z,92.53
2023-03-02T07:56:01.272Z,92.36
2023-03-02T07:58:27.944Z,92.10
2023-03-02T08:00:54.539Z,91.51
2023-03-02T08:03:21.097Z,91.29
2023-03-02T08:05:47.770Z,91.39
2023-03-02T08:08:14.356Z,91.09
2023-03-02T08:10:41.169Z,91.43
2023-03-02T08:13:07.789Z,91.60
2023-03-02T08:15:34.386Z,90.30
2023-03-02T08:18:02.431Z,90.28
2023-03-02T08:20:29.069Z,90.04
2023-03-02T08:22:55.695Z,89.94
2023-03-02T08:25:22.283Z,89.05
2023-03-02T08:27:48.840Z,90.06
2023-03-02T08:30:15.548Z,90.17
2023-03-02T08:32:42.198Z,89.53
2023-03-02T08:35:09.143Z,89.30
2023-03-02T08:37:35.731Z,89.08
2023-03-02T08:40:02.532Z,89.57
2023-03-02T08:42:29.116Z,89.72
2023-03-02T08:44:55.745Z,89.08
2023-03-02T08:47:22.504Z,88.19
2023-03-02T08:49:50.446Z,88.04
2023-03-02T08:52:17.215Z,87.60
2023-03-02T08:54:43.884Z,87.01
2023-03-02T08:57:12.203Z,86.59
2023-03-02T08:59:38.916Z,86.70
2023-03-02T09:02:05.691Z,86.73
2023-03-02T09:04:32.461Z,87.40
2023-03-02T09:06:59.139Z,87.18
2023-03-02T09:09:25.670Z,87.24
2023-03-02T09:11:52.452Z,87.48
2023-03-02T09:14:19.308Z,86.81
2023-03-02T09:16:46.971Z,87.78
2023-03-02T09:19:14.267Z,87.60
2023-03-02T09:21:40.910Z,86.34
2023-03-02T09:24:07.732Z,87.21
2023-03-02T09:26:34.982Z,86.48
2023-03-02T09:29:01.889Z,86.52
2023-03-02T09:31:30.210Z,86.64
2023-03-02T09:33:57.300Z,86.14
2023-03-02T09:36:25.673Z,86.16
2023-03-02T09:38:53.355Z,86.15
2023-03-02T09:41:20.075Z,87.63
2023-03-02T09:43:46.640Z,86.79
2023-03-02T09:46:16.129Z,86.32
2023-03-02T09:48:54.725Z,85.95
2023-03-02T09:51:40.047Z,86.35
2023-03-02T09:54:15.926Z,85.39
2023-03-02T09:56:46.534Z,86.37
2023-03-02T09:59:41.885Z,85.62
2023-03-02T10:02:14.515Z,85.31
2023-03-02T10:04:51.520Z,85.40
2023-03-02T10:07:26.628Z,86.48
2023-03-02T10:09:54.542Z,85.87
2023-03-02T10:12:36.429Z,85.15
2023-03-02T10:15:14.288Z,85.06
2023-03-02T10:18:21.172Z,84.46
2023-03-02T10:20:56.300Z,83.64
2023-03-02T10:23:25.484Z,83.59
2023-03-02T10:26:01.094Z,83.66
2023-03-02T10:28:36.346Z,84.10
2023-03-02T10:31:14.429Z,84.48
2023-03-02T10:33:41.973Z,84.28
2023-03-02T10:36:24.801Z,84.17
2023-03-02T10:38:52.536Z,84.09
2023-03-02T10:41:27.076Z,83.73
2023-03-02T10:44:01.269Z,83.85
2023-03-02T10:46:41.134Z,83.20
2023-03-02T10:49:32.743Z,82.68
2023-03-02T10:52:22.441Z,82.79
2023-03-02T10:54:49.722Z,83.02
2023-03-02T10:57:40.183Z,83.85
2023-03-02T11:00:22.327Z,84.13
2023-03-02T11:02:51.943Z,83.32
2023-03-02T11:05:32.930Z,82.62
2023-03-02T11:08:03.078Z,82.19
2023-03-02T11:10:32.489Z,82.29
2023-03-02T11:13:00.930Z,82.23
2023-03-02T11:15:43.179Z,83.02
2023-03-02T11:18:24.977Z,81.89
2023-03-02T11:21:03.347Z,81.15
2023-03-02T11:23:37.767Z,80.12
2023-03-02T11:26:20.734Z,80.31
2023-03-02T11:29:11.608Z,80.03
2023-03-02T11:31:43.488Z,80.20
2023-03-02T11:34:25.381Z,80.23
2023-03-02T11:37:05.939Z,80.30
2023-03-02T11:39:55.808Z,80.62
2023-03-02T11:42:31.476Z,80.03
2023-03-02T11:45:08.803Z,80.03
2023-03-02T11:47:37.264Z,80.07
2023-03-02T11:50:06.726Z,79.54
2023-03-02T11:52:38.491Z,79.15
2023-03-02T11:55:17.697Z,78.93
2023-03-02T11:57:51.344Z,78.78
2023-03-02T12:00:39.097Z,78.03
2023-03-02T12:03:14.761Z,77.47
2023-03-02T12:05:47.192Z,76.95
2023-03-02T12:08:19.862Z,77.60
2023-03-02T12:11:00.826Z,78.51
2023-03-02T12:13:30.812Z,77.16
2023-03-02T12:15:57.835Z,76.70
2023-03-02T12:18:24.815Z,76.66
2023-03-02T12:21:02.208Z,76.25
2023-03-02T12:23:29.803Z,77.72
2023-03-02T12:26:37.590Z,76.94
2023-03-02T12:29:10.050Z,77.18
2023-03-02T12:31:40.754Z,77.24
2023-03-02T12:34:41.687Z,77.54
2023-03-02T12:37:32.433Z,78.99
2023-03-02T12:40:25.147Z,78.06
2023-03-02T12:43:16.622Z,78.73
2023-03-02T12:46:01.972Z,78.66
2023-03-02T12:48:52.022Z,78.95
2023-03-02T12:51:22.752Z,79.03
2023-03-02T12:53:50.868Z,78.69
2023-03-02T12:56:25.263Z,80.15
2023-03-02T12:58:53.412Z,79.38
2023-03-02T13:01:27.389Z,81.82
2023-03-02T13:03:55.359Z,81.12
2023-03-02T13:06:25.593Z,80.94
2023-03-02T13:08:58.276Z,81.13
2023-03-02T13:11:36.341Z,81.21
2023-03-02T13:14:19.252Z,81.61
2023-03-02T13:16:55.444Z,81.89
2023-03-02T13:19:22.954Z,82.20
2023-03-02T13:21:50.415Z,82.02
2023-03-02T13:24:45.603Z,82.63
2023-03-02T13:27:23.433Z,81.80
2023-03-02T13:29:52.692Z,82.90
2023-03-02T13:32:28.431Z,82.79
2023-03-02T13:34:58.170Z,82.88
2023-03-02T13:37:39.116Z,82.58
2023-03-02T13:40:29.777Z,83.29
2023-03-02T13:42:56.481Z,84.59
2023-03-02T13:45:27.229Z,83.79
2023-03-02T13:47:55.758Z,83.80
2023-03-02T13:50:29.357Z,83.63
2023-03-02T13:52:58.533Z,83.86
2023-03-02T13:55:25.629Z,83.42
2023-03-02T13:57:53.463Z,83.60
2023-03-02T14:00:23.210Z,83.53
2023-03-02T14:02:50.497Z,84.19
2023-03-02T14:05:25.389Z,84.86
2023-03-02T14:07:52.878Z,84.66
2023-03-02T14:10:20.411Z,84.16
2023-03-02T14:12:57.111Z,84.44
2023-03-02T14:15:23.942Z,85.15
2023-03-02T14:17:50.613Z,85.33
2023-03-02T14:20:19.497Z,85.56
2023-03-02T14:22:47.409Z,86.20
2023-03-02T14:25:14.625Z,85.51
2023-03-02T14:27:42.331Z,86.12
2023-03-02T14:30:18.847Z,85.34
2023-03-02T14:32:45.500Z,85.62
2023-03-02T14:35:13.665Z,85.72
2023-03-02T14:37:43.604Z,86.14
2023-03-02T14:40:28.471Z,85.98
2023-03-02T14:42:55.241Z,86.32
2023-03-02T14:45:23.031Z,85.83
2023-03-02T14:47:49.655Z,85.67
2023-03-02T14:50:17.258Z,85.63
2023-03-02T14:52:51.352Z,85.80
2023-03-02T14:55:25.879Z,85.87
2023-03-02T14:58:02.590Z,85.88
2023-03-02T15:00:29.707Z,85.96
2023-03-02T15:02:56.670Z,86.71
2023-03-02T15:05:24.574Z,87.14
2023-03-02T15:07:53.138Z,86.93
2023-03-02T15:10:21.826Z,87.12
2023-03-02T15:12:48.639Z,87.30
2023-03-02T15:15:15.418Z,87.07
2023-03-02T15:17:42.287Z,87.57
2023-03-02T15:20:14.507Z,88.23
2023-03-02T15:22:41.287Z,88.10
2023-03-02T15:25:08.485Z,88.27
2023-03-02T15:27:35.053Z,88.49
2023-03-02T15:30:01.612Z,88.62
2023-03-02T15:32:28.281Z,88.17
2023-03-02T15:34:54.994Z,87.85
2023-03-02T15:37:22.066Z,88.38
2023-03-02T15:39:53.680Z,88.76
2023-03-02T15:42:20.287Z,88.58
2023-03-02T15:44:46.931Z,88.78
2023-03-02T15:47:13.590Z,88.49
2023-03-02T15:49:40.213Z,88.43
2023-03-02T15:52:06.875Z,88.74
2023-03-02T15:54:33.534Z,89.30
2023-03-02T15:57:00.132Z,89.20
2023-03-02T15:59:28.844Z,89.12
2023-03-02T16:02:02.488Z,88.90
2023-03-02T16:04:30.995Z,88.66
2023-03-02T16:06:58.220Z,88.50
2023-03-02T16:09:26.199Z,88.54
2023-03-02T16:11:53.061Z,88.39
2023-03-02T16:14:19.671Z,89.03
2023-03-02T16:16:46.973Z,89.07
2023-03-02T16:19:18.492Z,89.30
2023-03-02T16:21:46.123Z,89.68
2023-03-02T16:24:13.136Z,89.51
2023-03-02T16:26:39.898Z,89.58
2023-03-02T16:29:09.758Z,89.63
2023-03-02T16:31:38.380Z,89.76
2023-03-02T16:34:08.344Z,89.81
2023-03-02T16:36:37.578Z,89.88
2023-03-02T16:39:06.586Z,90.33
2023-03-02T16:41:33.764Z,90.54
2023-03-02T16:44:00.866Z,90.28
2023-03-02T16:46:30.520Z,90.34
2023-03-02T16:48:58.096Z,90.46
2023-03-02T16:51:25.555Z,90.89
2023-03-02T16:53:52.310Z,90.90
2023-03-02T16:56:19.004Z,91.14
2023-03-02T16:58:45.748Z,91.33
2023-03-02T17:01:16.612Z,90.82
2023-03-02T17:03:44.688Z,90.93
2023-03-02T17:06:13.092Z,91.27
2023-03-02T17:08:40.254Z,91.21
2023-03-02T17:11:07.575Z,91.45
2023-03-02T17:13:34.849Z,91.75
2023-03-02T17:16:01.484Z,91.62
2023-03-02T17:18:29.301Z,91.90
2023-03-02T17:20:58.376Z,92.13
2023-03-02T17:23:27.052Z,91.73
2023-03-02T17:25:54.966Z,92.05
2023-03-02T17:28:21.690Z,92.11
2023-03-02T17:30:48.530Z,92.17
2023-03-02T17:33:15.163Z,92.50
2023-03-02T17:35:42.499Z,92.65
2023-03-02T17:38:09.605Z,92.80
2023-03-02T17:40:36.231Z,92.89
2023-03-02T17:43:02.837Z,92.82
2023-03-02T17:45:29.905Z,92.51
2023-03-02T17:47:58.066Z,92.57
2023-03-02T17:50:25.522Z,92.71
2023-03-02T17:52:52.586Z,92.50
2023-03-02T17:55:19.785Z,92.52
2023-03-02T17:57:46.384Z,92.63
2023-03-02T18:00:17.077Z,92.26
2023-03-02T18:02:43.764Z,92.60
2023-03-02T18:05:11.647Z,92.94
2023-03-02T18:07:38.306Z,92.69
2023-03-02T18:10:06.113Z,92.95
2023-03-02T18:12:33.011Z,93.25
2023-03-02T18:14:59.682Z,93.24
2023-03-02T18:17:26.473Z,93.44
2023-03-02T18:19:53.038Z,93.31
2023-03-02T18:22:21.357Z,93.31
2023-03-02T18:24:47.975Z,93.29
2023-03-02T18:27:14.751Z,93.83
2023-03-02T18:29:41.353Z,93.69
2023-03-02T18:32:07.921Z,93.84
2023-03-02T18:34:34.674Z,94.01
2023-03-02T18:37:03.387Z,94.16
2023-03-02T18:39:29.980Z,94.40
2023-03-02T18:41:56.597Z,94.25
2023-03-02T18:44:27.832Z,94.10
2023-03-02T18:46:55.022Z,94.08
2023-03-02T18:49:21.785Z,93.99
2023-03-02T18:51:48.615Z,94.14
2023-03-02T18:54:15.289Z,93.71
2023-03-02T18:56:41.984Z,93.81
2023-03-02T18:59:09.496Z,93.63
2023-03-02T19:01:36.187Z,93.96
2023-03-02T19:04:04.797Z,94.22
2023-03-02T19:06:32.092Z,94.58
2023-03-02T19:08:58.922Z,94.76
2023-03-02T19:11:25.659Z,94.53
2023-03-02T19:13:52.373Z,94.64
2023-03-02T19:16:19.009Z,94.92
2023-03-02T19:18:45.692Z,95.03
2023-03-02T19:21:12.263Z,95.14
2023-03-02T19:23:39.088Z,95.51
2023-03-02T19:26:05.760Z,95.30
2023-03-02T19:28:34.423Z,95.27
2023-03-02T19:31:06.757Z,95.44
2023-03-02T19:33:33.739Z,95.44
2023-03-02T19:36:00.486Z,95.17
2023-03-02T19:38:29.217Z,95.04
2023-03-02T19:41:00.631Z,95.05
2023-03-02T19:43:27.815Z,95.19
2023-03-02T19:45:54.802Z,95.16
2023-03-02T19:48:21.758Z,95.50
2023-03-02T19:50:48.646Z,95.31
2023-03-02T19:53:16.994Z,94.59
2023-03-02T19:55:44.413Z,94.88
2023-03-02T19:58:16.943Z,94.64
2023-03-02T20:00:44.352Z,94.52
2023-03-02T20:03:11.046Z,94.60
2023-03-02T20:05:37.784Z,94.72
2023-03-02T20:08:05.327Z,94.54
2023-03-02T20:10:34.404Z,94.29
2023-03-02T20:13:01.542Z,94.09
2023-03-02T20:15:30.099Z,94.15
2023-03-02T20:17:58.348Z,93.45
2023-03-02T20:20:26.922Z,93.08
2023-03-02T20:22:53.781Z,93.81
2023-03-02T20:25:21.338Z,93.52
2023-03-02T20:27:49.337Z,94.22
2023-03-02T20:30:20.185Z,94.21
2023-03-02T20:32:46.826Z,94.43
2023-03-02T20:35:13.476Z,94.30
2023-03-02T20:37:41.504Z,93.97
2023-03-02T20:40:09.785Z,93.98
2023-03-02T20:42:36.394Z,93.92
2023-03-02T20:45:04.393Z,93.75
2023-03-02T20:47:31.146Z,93.81
2023-03-02T20:49:58.120Z,93.41
2023-03-02T20:52:24.980Z,93.25
2023-03-02T20:54:51.736Z,93.39
2023-03-02T20:57:23.679Z,93.56
2023-03-02T20:59:50.621Z,93.54
2023-03-02T21:02:19.510Z,93.69
2023-03-02T21:04:46.906Z,93.71
2023-03-02T21:07:14.527Z,93.78
2023-03-02T21:09:41.887Z,93.04
2023-03-02T21:12:11.711Z,92.97
2023-03-02T21:14:39.949Z,92.38
2023-03-02T21:17:07.840Z,92.39
2023-03-02T21:19:35.645Z,92.11
2023-03-02T21:22:03.644Z,92.14
2023-03-02T21:24:30.425Z,91.96
2023-03-02T21:26:57.473Z,91.95
2023-03-02T21:29:26.544Z,91.58
2023-03-02T21:31:53.439Z,92.15
2023-03-02T21:34:21.810Z,92.04
2023-03-02T21:36:53.005Z,92.30
2023-03-02T21:39:23.498Z,92.70
2023-03-02T21:41:50.918Z,93.05
2023-03-02T21:44:18.015Z,93.07
2023-03-02T21:46:45.229Z,93.02
2023-03-02T21:49:18.712Z,92.53
2023-03-02T21:51:46.720Z,92.83
2023-03-02T21:54:14.761Z,92.47
2023-03-02T21:56:43.052Z,92.47
2023-03-02T21:59:10.803Z,92.43
2023-03-02T22:01:37.415Z,92.60
2023-03-02T22:04:04.382Z,93.04
2023-03-02T22:06:32.753Z,93.04
2023-03-02T22:09:01.330Z,93.13
2023-03-02T22:11:31.834Z,93.04
2023-03-02T22:14:01.516Z,93.11
2023-03-02T22:16:34.532Z,92.59
2023-03-02T22:19:01.955Z,92.49
2023-03-02T22:21:37.751Z,91.56
2023-03-02T22:24:13.584Z,92.09
2023-03-02T22:26:50.042Z,92.17
2023-03-02T22:29:18.079Z,92.26
2023-03-02T22:31:47.869Z,92.04
2023-03-02T22:34:20.475Z,92.29
2023-03-02T22:36:47.479Z,92.09
2023-03-02T22:39:27.457Z,92.17
2023-03-02T22:42:14.335Z,92.10
2023-03-02T22:44:41.477Z,92.19
2023-03-02T22:47:18.450Z,91.98
2023-03-02T22:49:46.557Z,92.11
2023-03-02T22:52:24.877Z,92.57
2023-03-02T22:54:51.633Z,93.03
2023-03-02T22:57:23.935Z,92.88
2023-03-02T22:59:50.552Z,92.70
2023-03-02T23:02:22.254Z,92.31
2023-03-02T23:04:49.969Z,92.00
2023-03-02T23:07:21.522Z,92.36
2023-03-02T23:09:48.977Z,92.39
2023-03-02T23:12:27.315Z,92.43
2023-03-02T23:14:56.711Z,92.51
2023-03-02T23:17:40.501Z,92.35
2023-03-02T23:20:10.664Z,92.64
2023-03-02T23:22:38.964Z,92.41
2023-03-02T23:25:08.721Z,92.55
2023-03-02T23:27:35.534Z,92.06
2023-03-02T23:30:02.766Z,92.01
2023-03-02T23:32:29.409Z,92.24
2023-03-02T23:34:56.444Z,92.23
2023-03-02T23:37:23.075Z,92.48
2023-03-02T23:39:49.716Z,92.50
2023-03-02T23:42:16.330Z,92.72
2023-03-02T23:44:43.232Z,92.78
2023-03-02T23:47:09.871Z,92.54
2023-03-02T23:49:36.514Z,92.72
2023-03-02T23:52:03.620Z,92.99
2023-03-02T23:54:30.283Z,92.95
2023-03-02T23:56:56.951Z,92.92
2023-03-02T23:59:23.621Z,92.94
